Time;durP1;ratioP1;P1;durP2;ratioP2;P2;SDS_P1;SDS_P2;PMS_P1;PMS_P2;Temp;Humidity;BMP_temperature;BMP_pressure;BME280_temperature;BME280_humidity;BME280_pressure;Samples;Min_cycle;Max_cycle;Signal;HPM_P1;HPM_P2
2022/06/25 00:07:11;;;;;;;;;;;16.40;99.90;;;;;;5080861;28;19935;-87
2022/06/25 00:09:39;;;;;;;;;;;16.20;99.90;;;;;;5095533;28;19932;-82
2022/06/25 00:14:54;;;;;;;;;;;16.10;99.90;;;;;;5082222;28;19932;-85
2022/06/25 00:17:22;;;;;;;;;;;15.90;99.90;;;;;;5097570;28;20375;-84
2022/06/25 00:19:49;;;;;;;;;;;16.00;99.90;;;;;;5084346;28;19925;-85
2022/06/25 00:22:17;;;;;;;;;;;16.00;99.90;;;;;;5083219;28;19923;-87
2022/06/25 00:24:46;;;;;;;;;;;15.40;99.90;;;;;;5100141;28;19931;-87
2022/06/25 00:27:14;;;;;;;;;;;15.90;99.90;;;;;;5095908;28;19930;-85
2022/06/25 00:29:42;;;;;;;;;;;15.90;99.90;;;;;;5068944;28;19931;-88
2022/06/25 00:32:10;;;;;;;;;;;17.00;99.90;;;;;;5088272;28;20311;-84
2022/06/25 00:34:38;;;;;;;;;;;15.80;99.90;;;;;;5052500;28;19925;-86
2022/06/25 00:37:07;;;;;;;;;;;15.80;99.90;;;;;;5075041;28;19931;-88
2022/06/25 00:39:36;;;;;;;;;;;15.70;99.90;;;;;;5072388;28;19925;-82
2022/06/25 00:42:09;;;;;;;;;;;15.60;99.90;;;;;;5073761;28;20379;-85
2022/06/25 00:44:37;;;;;;;;;;;15.60;99.90;;;;;;5071893;28;19924;-88
2022/06/25 00:47:08;;;;;;;;;;;15.90;99.90;;;;;;5057149;28;19936;-84
2022/06/25 00:49:36;;;;;;;;;;;15.50;99.90;;;;;;5093673;28;19928;-88
2022/06/25 00:52:10;;;;;;;;;;;15.40;99.90;;;;;;5067605;28;19931;-84
2022/06/25 00:54:39;;;;;;;;;;;15.40;99.90;;;;;;5071444;28;20327;-87
2022/06/25 00:57:07;;;;;;;;;;;15.30;99.90;;;;;;5097331;28;19928;-85
2022/06/25 00:59:46;;;;;;;;;;;15.30;99.90;;;;;;5077793;28;19924;-84
2022/06/25 01:02:17;;;;;;;;;;;15.20;99.90;;;;;;5081490;28;19925;-82
2022/06/25 01:04:44;;;;;;;;;;;15.20;99.90;;;;;;5093088;28;19925;-82
2022/06/25 01:07:26;;;;;;;;;;;15.10;99.90;;;;;;5059817;28;19924;-84
2022/06/25 01:10:00;;;;;;;;;;;15.10;99.90;;;;;;5076836;28;19924;-85
2022/06/25 01:12:28;;;;;;;;;;;15.10;99.90;;;;;;5093050;28;20430;-85
2022/06/25 01:15:13;;;;;;;;;;;15.00;99.90;;;;;;5077707;28;19924;-85
2022/06/25 01:17:59;;;;;;;;;;;15.00;99.90;;;;;;5061618;28;19924;-84
2022/06/25 01:20:31;;;;;;;;;;;15.00;99.90;;;;;;5058488;28;19942;-82
2022/06/25 01:23:00;;;;;;;;;;;14.90;99.90;;;;;;5093878;28;19928;-83
2022/06/25 01:25:38;;;;;;;;;;;14.90;99.90;;;;;;5063641;28;20322;-83
2022/06/25 01:28:11;;;;;;;;;;;14.90;99.90;;;;;;5076168;28;19925;-84
2022/06/25 01:30:40;;;;;;;;;;;15.00;99.90;;;;;;5094779;28;19938;-84
2022/06/25 01:33:08;;;;;;;;;;;15.00;99.90;;;;;;5086417;28;19924;-84
2022/06/25 01:35:37;;;;;;;;;;;15.00;99.90;;;;;;5081706;28;19928;-83
2022/06/25 01:38:06;;;;;;;;;;;14.00;99.90;;;;;;5076839;28;19928;-84
2022/06/25 01:40:40;;;;;;;;;;;15.00;99.90;;;;;;5076440;28;19935;-82
2022/06/25 01:43:08;;;;;;;;;;;15.00;99.90;;;;;;5109920;28;19928;-88
2022/06/25 01:45:36;;;;;;;;;;;14.90;99.90;;;;;;4750265;28;9999689;-83
2022/06/25 01:48:05;;;;;;;;;;;14.90;99.90;;;;;;5078446;28;19999;-86
2022/06/25 01:50:34;;;;;;;;;;;14.80;99.90;;;;;;5102898;28;19924;-85
2022/06/25 01:53:03;;;;;;;;;;;14.90;99.90;;;;;;5079999;28;19931;-85
2022/06/25 01:55:32;;;;;;;;;;;14.80;99.90;;;;;;5095808;28;19924;-88
2022/06/25 01:58:01;;;;;;;;;;;14.90;99.90;;;;;;5077394;28;19930;-84
2022/06/25 02:00:31;;;;;;;;;;;14.70;99.90;;;;;;5074240;28;19924;-87
2022/06/25 02:03:06;;;;;;;;;;;14.60;99.90;;;;;;5041701;28;20323;-87
2022/06/25 02:08:31;;;;;;;;;;;14.60;99.90;;;;;;5085548;28;20380;-84
2022/06/25 02:11:01;;;;;;;;;;;14.40;99.90;;;;;;5069454;28;19936;-85
2022/06/25 02:13:29;;;;;;;;;;;14.60;99.90;;;;;;5060436;28;19929;-84
2022/06/25 02:15:57;;;;;;;;;;;14.50;99.90;;;;;;5072795;28;19947;-85
2022/06/25 02:18:25;;;;;;;;;;;14.60;99.90;;;;;;5095702;28;20019;-84
2022/06/25 02:20:53;;;;;;;;;;;14.60;99.90;;;;;;5096896;28;19939;-84
2022/06/25 02:23:30;;;;;;;;;;;14.50;99.90;;;;;;5096227;28;19935;-87
2022/06/25 02:25:58;;;;;;;;;;;14.50;99.90;;;;;;5084393;28;19965;-86
2022/06/25 02:28:25;;;;;;;;;;;14.50;99.90;;;;;;5058862;28;19939;-84
2022/06/25 02:30:53;;;;;;;;;;;14.50;99.90;;;;;;5055633;28;19928;-87
2022/06/25 02:33:22;;;;;;;;;;;14.40;99.90;;;;;;5076940;28;19931;-84
2022/06/25 02:35:51;;;;;;;;;;;14.40;99.90;;;;;;5069736;28;20339;-85
2022/06/25 02:38:20;;;;;;;;;;;15.40;99.90;;;;;;5067127;28;20371;-86
2022/06/25 02:40:52;;;;;;;;;;;14.40;99.90;;;;;;5095670;28;19924;-87
2022/06/25 02:43:23;;;;;;;;;;;14.30;99.90;;;;;;5072944;28;19940;-85
2022/06/25 02:46:05;;;;;;;;;;;14.40;99.90;;;;;;5078631;28;19935;-88
2022/06/25 02:48:42;;;;;;;;;;;14.40;99.90;;;;;;5091807;28;19932;-88
2022/06/25 02:51:13;;;;;;;;;;;14.40;99.90;;;;;;5099577;28;19928;-85
2022/06/25 02:53:43;;;;;;;;;;;14.60;99.90;;;;;;5134790;27;19935;-86
2022/06/25 02:59:01;;;;;;;;;;;14.30;99.90;;;;;;5097678;28;19924;-84
2022/06/25 03:01:43;;;;;;;;;;;14.30;99.90;;;;;;5094630;28;19928;-85
2022/06/25 03:04:12;;;;;;;;;;;14.30;99.90;;;;;;5062551;28;19932;-85
2022/06/25 03:06:40;;;;;;;;;;;14.30;99.90;;;;;;5064000;28;19924;-85
2022/06/25 03:09:10;;;;;;;;;;;14.20;99.90;;;;;;5074610;28;20657;-84
2022/06/25 03:11:39;;;;;;;;;;;14.20;99.90;;;;;;5063096;28;19935;-83
2022/06/25 03:14:07;;;;;;;;;;;14.20;99.90;;;;;;5089580;28;19925;-83
2022/06/25 03:16:35;;;;;;;;;;;14.20;99.90;;;;;;5058417;28;19931;-85
2022/06/25 03:19:09;;;;;;;;;;;14.20;99.90;;;;;;5095950;28;19925;-89
2022/06/25 03:21:46;;;;;;;;;;;14.20;99.90;;;;;;5075304;28;19931;-83
2022/06/25 03:24:16;;;;;;;;;;;14.20;99.90;;;;;;5074327;28;19947;-85
2022/06/25 03:26:45;;;;;;;;;;;14.10;99.90;;;;;;5046691;28;20255;-85
2022/06/25 03:29:13;;;;;;;;;;;14.10;99.90;;;;;;5081435;28;19925;-86
2022/06/25 03:31:41;;;;;;;;;;;14.10;99.90;;;;;;5110820;28;19935;-83
2022/06/25 03:34:31;;;;;;;;;;;14.10;99.90;;;;;;5078869;28;19931;-83
2022/06/25 03:36:59;;;;;;;;;;;13.50;99.90;;;;;;5075828;28;19925;-85
2022/06/25 03:39:28;;;;;;;;;;;14.10;99.90;;;;;;5085277;28;19929;-85
2022/06/25 03:41:59;;;;;;;;;;;14.00;99.90;;;;;;5069258;28;20093;-84
2022/06/25 03:44:50;;;;;;;;;;;12.70;99.90;;;;;;5103976;28;19930;-84
2022/06/25 03:47:28;;;;;;;;;;;14.00;99.90;;;;;;5073510;28;19928;-86
2022/06/25 03:49:59;;;;;;;;;;;13.90;99.90;;;;;;5068236;28;19928;-84
2022/06/25 03:52:31;;;;;;;;;;;14.00;99.90;;;;;;5063348;28;19996;-84
2022/06/25 03:55:00;;;;;;;;;;;13.90;99.90;;;;;;5064639;28;19940;-84
2022/06/25 03:57:38;;;;;;;;;;;13.90;99.90;;;;;;5069639;28;19924;-89
2022/06/25 04:00:18;;;;;;;;;;;13.90;99.90;;;;;;5097524;28;19924;-83
2022/06/25 04:02:56;;;;;;;;;;;14.20;99.90;;;;;;5077065;28;19925;-85
2022/06/25 04:05:28;;;;;;;;;;;13.90;99.90;;;;;;5079983;28;19925;-86
2022/06/25 04:08:14;;;;;;;;;;;13.80;99.90;;;;;;5051291;28;19940;-85
2022/06/25 04:10:42;;;;;;;;;;;13.90;99.90;;;;;;5081109;28;20405;-85
2022/06/25 04:13:18;;;;;;;;;;;14.80;99.90;;;;;;5081168;28;19939;-84
2022/06/25 04:15:47;;;;;;;;;;;13.90;99.90;;;;;;5048303;28;19924;-89
2022/06/25 04:18:24;;;;;;;;;;;13.90;99.90;;;;;;5046333;28;19932;-84
2022/06/25 04:20:58;;;;;;;;;;;13.90;99.90;;;;;;5083005;28;19929;-88
2022/06/25 04:23:29;;;;;;;;;;;13.90;99.90;;;;;;5081253;28;19924;-87
2022/06/25 04:25:59;;;;;;;;;;;13.90;99.90;;;;;;5062034;28;19925;-86
2022/06/25 04:31:38;;;;;;;;;;;13.90;99.90;;;;;;5066828;28;19925;-85
2022/06/25 04:34:15;;;;;;;;;;;13.90;99.90;;;;;;5052744;28;19929;-85
2022/06/25 04:36:47;;;;;;;;;;;13.90;99.90;;;;;;5074291;28;19943;-84
2022/06/25 04:39:28;;;;;;;;;;;13.90;99.90;;;;;;5071574;28;19929;-85
2022/06/25 04:41:57;;;;;;;;;;;13.90;99.90;;;;;;5072319;28;19928;-86
2022/06/25 04:44:28;;;;;;;;;;;13.90;99.90;;;;;;5042847;28;20283;-87
2022/06/25 04:47:01;;;;;;;;;;;13.80;99.90;;;;;;5050642;28;19936;-85
2022/06/25 04:49:50;;;;;;;;;;;13.90;99.90;;;;;;5041837;28;19934;-82
2022/06/25 04:52:20;;;;;;;;;;;13.90;99.90;;;;;;5076542;28;19924;-83
2022/06/25 04:54:48;;;;;;;;;;;13.90;99.90;;;;;;5049966;28;19935;-84
2022/06/25 04:57:24;;;;;;;;;;;13.90;99.90;;;;;;5068758;28;20007;-86
2022/06/25 05:00:12;;;;;;;;;;;13.90;99.90;;;;;;5065178;28;19928;-84
2022/06/25 05:02:54;;;;;;;;;;;13.80;99.90;;;;;;5061659;28;19968;-83
2022/06/25 05:05:23;;;;;;;;;;;13.80;99.90;;;;;;5048290;28;19928;-83
2022/06/25 05:07:57;;;;;;;;;;;13.90;99.90;;;;;;5097324;28;20283;-84
2022/06/25 05:10:29;;;;;;;;;;;13.90;99.90;;;;;;5082970;28;19935;-85
2022/06/25 05:13:12;;;;;;;;;;;13.90;99.90;;;;;;5081947;28;19924;-83
2022/06/25 05:15:43;;;;;;;;;;;14.00;99.90;;;;;;5082288;28;19928;-86
2022/06/25 05:18:13;;;;;;;;;;;14.40;99.90;;;;;;5094369;28;19931;-85
2022/06/25 05:20:43;;;;;;;;;;;14.00;99.90;;;;;;5104310;28;19928;-86
2022/06/25 05:23:12;;;;;;;;;;;13.90;99.90;;;;;;5088853;28;19936;-87
2022/06/25 05:25:46;;;;;;;;;;;14.10;99.90;;;;;;5062850;28;19924;-84
2022/06/25 05:28:15;;;;;;;;;;;14.10;99.90;;;;;;5065663;28;19938;-83
2022/06/25 05:30:44;;;;;;;;;;;14.10;99.90;;;;;;5070299;28;19935;-83
2022/06/25 05:33:14;;;;;;;;;;;14.00;99.90;;;;;;5080566;28;19924;-83
2022/06/25 05:35:45;;;;;;;;;;;14.20;99.90;;;;;;5083055;28;19939;-84
2022/06/25 05:38:14;;;;;;;;;;;14.30;99.90;;;;;;5100753;28;19928;-84
2022/06/25 05:40:44;;;;;;;;;;;14.30;99.90;;;;;;5081189;28;19924;-85
2022/06/25 05:43:16;;;;;;;;;;;14.30;99.90;;;;;;5062738;28;19933;-82
2022/06/25 05:45:44;;;;;;;;;;;14.30;99.90;;;;;;5083914;28;19924;-86
2022/06/25 05:48:16;;;;;;;;;;;14.40;99.90;;;;;;5095035;28;19927;-85
2022/06/25 05:50:52;;;;;;;;;;;14.40;99.90;;;;;;5082919;28;19924;-84
2022/06/25 05:53:21;;;;;;;;;;;14.40;99.90;;;;;;5104046;28;19920;-83
2022/06/25 05:55:51;;;;;;;;;;;14.50;99.90;;;;;;5070027;28;19928;-84
2022/06/25 05:58:23;;;;;;;;;;;14.40;99.90;;;;;;5087959;28;19924;-84
2022/06/25 06:00:53;;;;;;;;;;;14.50;99.90;;;;;;5069629;28;19932;-85
2022/06/25 06:03:25;;;;;;;;;;;14.60;99.90;;;;;;5067409;28;19928;-85
2022/06/25 06:05:54;;;;;;;;;;;14.70;99.90;;;;;;5114128;28;19924;-82
2022/06/25 06:08:22;;;;;;;;;;;14.80;99.90;;;;;;5118362;28;19930;-84
2022/06/25 06:10:54;;;;;;;;;;;14.90;99.90;;;;;;5103414;28;19935;-83
2022/06/25 06:13:23;;;;;;;;;;;14.90;99.90;;;;;;5101490;28;19938;-85
2022/06/25 06:15:58;;;;;;;;;;;15.00;99.90;;;;;;5085757;28;20378;-84
2022/06/25 06:18:29;;;;;;;;;;;15.10;99.90;;;;;;5121196;28;19924;-83
2022/06/25 06:20:57;;;;;;;;;;;15.40;99.90;;;;;;5122463;28;19939;-82
2022/06/25 06:23:27;;;;;;;;;;;15.20;99.90;;;;;;5104276;28;19931;-83
2022/06/25 06:25:55;;;;;;;;;;;15.20;99.90;;;;;;5105905;28;19939;-83
2022/06/25 06:28:24;;;;;;;;;;;15.20;99.90;;;;;;5113315;28;19931;-87
2022/06/25 06:30:54;;;;;;;;;;;15.20;99.90;;;;;;5115429;28;19930;-84
2022/06/25 06:33:45;;;;;;;;;;;15.20;99.90;;;;;;5119654;28;19932;-85
2022/06/25 06:36:16;;;;;;;;;;;15.10;99.90;;;;;;5123632;28;20488;-85
2022/06/25 06:38:53;;;;;;;;;;;15.20;99.90;;;;;;5115864;28;19924;-85
2022/06/25 06:41:24;;;;;;;;;;;15.20;99.90;;;;;;5119013;28;20168;-87
2022/06/25 06:43:54;;;;;;;;;;;15.20;99.90;;;;;;5101643;28;19923;-86
2022/06/25 06:46:24;;;;;;;;;;;15.20;99.90;;;;;;5076498;28;19950;-83
2022/06/25 06:48:55;;;;;;;;;;;15.30;99.90;;;;;;5107719;28;19930;-85
2022/06/25 06:51:35;;;;;;;;;;;15.30;99.90;;;;;;5126587;28;19923;-84
2022/06/25 06:54:04;;;;;;;;;;;15.50;99.90;;;;;;5105575;28;19931;-83
2022/06/25 06:56:33;;;;;;;;;;;15.50;99.90;;;;;;5087212;28;19923;-83
2022/06/25 06:59:04;;;;;;;;;;;15.40;99.90;;;;;;5103557;28;19928;-84
2022/06/25 07:01:41;;;;;;;;;;;15.80;99.90;;;;;;5086737;28;19931;-83
2022/06/25 07:04:20;;;;;;;;;;;15.50;99.90;;;;;;5088428;28;19934;-84
2022/06/25 07:06:48;;;;;;;;;;;15.50;99.90;;;;;;5120212;28;19924;-82
2022/06/25 07:09:26;;;;;;;;;;;16.80;99.90;;;;;;4735686;28;10000395;-84
2022/06/25 07:11:59;;;;;;;;;;;15.60;99.90;;;;;;5105873;28;19931;-86
2022/06/25 07:14:31;;;;;;;;;;;15.70;99.90;;;;;;5105496;28;19924;-85
2022/06/25 07:17:12;;;;;;;;;;;15.90;99.90;;;;;;5102689;28;19924;-86
2022/06/25 07:19:52;;;;;;;;;;;15.90;99.80;;;;;;5106008;28;19954;-83
2022/06/25 07:22:27;;;;;;;;;;;15.50;99.90;;;;;;5087429;28;19931;-84
2022/06/25 07:24:56;;;;;;;;;;;16.00;99.70;;;;;;5071374;28;20027;-89
2022/06/25 07:27:38;;;;;;;;;;;16.30;99.90;;;;;;5101053;28;19928;-89
2022/06/25 07:30:17;;;;;;;;;;;16.20;99.20;;;;;;5120567;28;19927;-84
2022/06/25 07:32:51;;;;;;;;;;;15.40;98.80;;;;;;5082305;28;19924;-89
2022/06/25 07:35:23;;;;;;;;;;;16.30;98.70;;;;;;5121896;28;19939;-86
2022/06/25 07:37:58;;;;;;;;;;;16.30;98.20;;;;;;5089415;28;19928;-84
2022/06/25 07:40:31;;;;;;;;;;;16.40;98.10;;;;;;5100894;28;19923;-84
2022/06/25 07:43:03;;;;;;;;;;;16.50;98.30;;;;;;5099670;28;20302;-84
2022/06/25 07:45:34;;;;;;;;;;;16.50;98.20;;;;;;5098787;28;21090;-84
2022/06/25 07:48:10;;;;;;;;;;;16.60;97.90;;;;;;5122055;28;19932;-85
2022/06/25 07:53:34;;;;;;;;;;;16.80;97.50;;;;;;5101992;28;19924;-85
2022/06/25 07:56:05;;;;;;;;;;;16.70;97.90;;;;;;5102098;28;19927;-86
2022/06/25 07:58:36;;;;;;;;;;;17.10;97.80;;;;;;5099293;28;19930;-84
2022/06/25 08:01:04;;;;;;;;;;;16.90;97.30;;;;;;5116669;28;19930;-84
2022/06/25 08:03:41;;;;;;;;;;;17.10;97.30;;;;;;5100587;28;19924;-85
2022/06/25 08:06:10;;;;;;;;;;;17.30;97.40;;;;;;5114964;28;20326;-84
2022/06/25 08:08:39;;;;;;;;;;;17.30;97.00;;;;;;5118243;28;19939;-84
2022/06/25 08:11:07;;;;;;;;;;;17.40;96.50;;;;;;5116472;28;19938;-83
2022/06/25 08:13:37;;;;;;;;;;;17.50;96.30;;;;;;5097130;28;19935;-83
2022/06/25 08:16:09;;;;;;;;;;;17.60;96.80;;;;;;5098751;28;19938;-83
2022/06/25 08:18:38;;;;;;;;;;;17.60;96.60;;;;;;5115230;28;19943;-83
2022/06/25 08:21:10;;;;;;;;;;;17.70;96.00;;;;;;5093630;28;19946;-84
2022/06/25 08:23:39;;;;;;;;;;;17.90;95.90;;;;;;5097286;28;19924;-87
2022/06/25 08:26:08;;;;;;;;;;;17.80;95.50;;;;;;5116725;28;19931;-89
2022/06/25 08:28:38;;;;;;;;;;;17.80;94.90;;;;;;5099420;28;19942;-84
2022/06/25 08:31:06;;;;;;;;;;;17.80;94.80;;;;;;5128869;27;19939;-86
2022/06/25 08:33:33;;;;;;;;;;;17.90;94.50;;;;;;5083775;28;19928;-87
2022/06/25 08:36:01;;;;;;;;;;;18.00;94.30;;;;;;5097890;28;19935;-88
2022/06/25 08:38:30;;;;;;;;;;;18.10;93.60;;;;;;5113219;28;20311;-86
2022/06/25 08:41:03;;;;;;;;;;;18.20;93.70;;;;;;5119513;28;20001;-85
2022/06/25 08:43:31;;;;;;;;;;;18.20;93.30;;;;;;5100705;28;19935;-90
2022/06/25 08:46:03;;;;;;;;;;;16.90;92.20;;;;;;5094394;28;19927;-88
2022/06/25 08:48:34;;;;;;;;;;;18.10;93.20;;;;;;5100388;28;19923;-85
2022/06/25 08:51:03;;;;;;;;;;;18.10;93.20;;;;;;5095677;28;19931;-87
2022/06/25 08:53:36;;;;;;;;;;;18.00;93.30;;;;;;5115529;28;19935;-89
2022/06/25 08:56:09;;;;;;;;;;;18.10;92.70;;;;;;5113455;28;19932;-87
2022/06/25 08:58:43;;;;;;;;;;;18.00;93.10;;;;;;5096574;28;19923;-85
2022/06/25 09:01:11;;;;;;;;;;;18.10;93.70;;;;;;5116465;28;19924;-86
2022/06/25 09:03:40;;;;;;;;;;;18.20;93.70;;;;;;5097119;28;19924;-86
2022/06/25 09:06:15;;;;;;;;;;;18.30;93.10;;;;;;5077177;28;19924;-87
2022/06/25 09:09:05;;;;;;;;;;;17.30;92.90;;;;;;5098064;28;19964;-88
2022/06/25 09:11:56;;;;;;;;;;;18.40;92.80;;;;;;5097139;28;19924;-84
2022/06/25 09:14:27;;;;;;;;;;;18.80;92.40;;;;;;5097576;28;19927;-86
2022/06/25 09:16:56;;;;;;;;;;;19.00;92.00;;;;;;5116109;28;20286;-86
2022/06/25 09:19:36;;;;;;;;;;;19.00;90.00;;;;;;5082323;28;19928;-87
2022/06/25 09:22:06;;;;;;;;;;;19.10;90.50;;;;;;5078332;28;19942;-87
2022/06/25 09:24:39;;;;;;;;;;;19.20;90.30;;;;;;5106494;28;19919;-87
2022/06/25 09:27:09;;;;;;;;;;;21.10;91.50;;;;;;5077859;28;19928;-90
2022/06/25 09:29:40;;;;;;;;;;;19.40;91.30;;;;;;5113005;28;20368;-85
2022/06/25 09:32:08;;;;;;;;;;;19.40;91.10;;;;;;5095283;28;19924;-87
2022/06/25 09:34:38;;;;;;;;;;;19.50;90.90;;;;;;5093165;28;20614;-85
2022/06/25 09:37:25;;;;;;;;;;;19.50;90.20;;;;;;5081502;28;19939;-84
2022/06/25 09:39:58;;;;;;;;;;;19.50;90.30;;;;;;5076839;28;19931;-87
2022/06/25 09:42:27;;;;;;;;;;;19.70;88.70;;;;;;5061810;28;19939;-87
2022/06/25 09:44:58;;;;;;;;;;;19.70;88.90;;;;;;5083045;28;19928;-87
2022/06/25 09:47:28;;;;;;;;;;;19.70;87.20;;;;;;5088118;28;19923;-88
2022/06/25 09:50:05;;;;;;;;;;;19.70;87.70;;;;;;5120015;28;19939;-90
2022/06/25 09:52:36;;;;;;;;;;;19.80;88.30;;;;;;5133558;27;19934;-84
2022/06/25 09:55:11;;;;;;;;;;;19.70;89.00;;;;;;5072202;28;19928;-84
2022/06/25 09:57:40;;;;;;;;;;;19.80;87.00;;;;;;5065085;28;19939;-84
2022/06/25 10:00:11;;;;;;;;;;;19.90;87.70;;;;;;5113865;28;20617;-87
2022/06/25 10:02:42;;;;;;;;;;;19.90;87.40;;;;;;5075919;28;19931;-89
2022/06/25 10:05:10;;;;;;;;;;;19.80;86.80;;;;;;5113720;28;19931;-86
2022/06/25 10:10:40;;;;;;;;;;;19.70;86.80;;;;;;5094957;28;19923;-87
2022/06/25 10:13:10;;;;;;;;;;;19.60;87.90;;;;;;5097234;28;19923;-86
2022/06/25 10:15:39;;;;;;;;;;;19.60;88.50;;;;;;5079322;28;19928;-88
2022/06/25 10:18:09;;;;;;;;;;;19.70;88.40;;;;;;5091930;28;19924;-87
2022/06/25 10:20:39;;;;;;;;;;;18.70;87.90;;;;;;5079122;28;19924;-89
2022/06/25 10:23:14;;;;;;;;;;;19.80;87.30;;;;;;5073632;28;20247;-88
2022/06/25 10:25:46;;;;;;;;;;;19.90;87.70;;;;;;5073702;28;20409;-90
2022/06/25 10:28:25;;;;;;;;;;;20.00;87.50;;;;;;5077921;28;20832;-88
2022/06/25 10:30:54;;;;;;;;;;;20.10;86.00;;;;;;5078858;28;20379;-90
2022/06/25 10:33:28;;;;;;;;;;;20.50;83.60;;;;;;5066291;28;20809;-88
2022/06/25 10:36:04;;;;;;;;;;;20.00;83.50;;;;;;5107882;28;19939;-89
2022/06/25 10:38:36;;;;;;;;;;;20.10;84.70;;;;;;5097761;28;19935;-88
2022/06/25 10:44:04;;;;;;;;;;;20.00;85.00;;;;;;5138834;28;19924;-89
2022/06/25 10:46:48;;;;;;;;;;;20.10;85.90;;;;;;5089037;28;19926;-88
2022/06/25 10:49:50;;;;;;;;;;;20.10;85.40;;;;;;5082647;28;20335;-88
2022/06/25 10:52:23;;;;;;;;;;;20.20;84.00;;;;;;5086215;28;19935;-88
2022/06/25 10:54:58;;;;;;;;;;;20.10;82.90;;;;;;5052271;28;19924;-88
2022/06/25 10:57:37;;;;;;;;;;;20.30;83.80;;;;;;5099153;28;20292;-87
2022/06/25 11:00:13;;;;;;;;;;;20.40;82.50;;;;;;5095215;28;19924;-90
2022/06/25 11:02:52;;;;;;;;;;;20.40;82.40;;;;;;5092169;28;19932;-89
2022/06/25 11:06:29;;;;;;;;;;;20.50;82.30;;;;;;5104700;28;19935;-90
2022/06/25 11:09:04;;;;;;;;;;;20.60;82.30;;;;;;5130148;28;19923;-89
2022/06/25 11:12:13;;;;;;;;;;;20.60;82.10;;;;;;5090413;28;19931;-90
2022/06/25 11:15:10;;;;;;;;;;;20.80;82.10;;;;;;5084991;28;20290;-91
2022/06/25 11:17:55;;;;;;;;;;;20.90;81.40;;;;;;5071889;28;19939;-88
2022/06/25 11:20:31;;;;;;;;;;;20.90;82.70;;;;;;5087992;28;19924;-88
2022/06/25 11:23:12;;;;;;;;;;;20.30;79.50;;;;;;5108553;28;20323;-90
2022/06/25 11:29:51;;;;;;;;;;;21.20;78.70;;;;;;5094894;28;19922;-90
2022/06/25 11:32:45;;;;;;;;;;;21.30;77.20;;;;;;5091499;28;19932;-91
2022/06/25 11:35:40;;;;;;;;;;;19.80;77.90;;;;;;5131225;27;19924;-91
2022/06/25 11:38:35;;;;;;;;;;;20.90;78.50;;;;;;5114868;28;19922;-90
2022/06/25 11:41:07;;;;;;;;;;;20.80;78.80;;;;;;5082977;28;19923;-89
2022/06/25 11:44:06;;;;;;;;;;;21.00;79.90;;;;;;5082550;28;19907;-90
2022/06/25 11:46:53;;;;;;;;;;;20.90;79.00;;;;;;5115705;28;20555;-90
2022/06/25 11:49:34;;;;;;;;;;;21.10;78.00;;;;;;5099759;28;19932;-89
2022/06/25 11:52:34;;;;;;;;;;;21.30;77.30;;;;;;5085119;28;19930;-90
2022/06/25 11:55:12;;;;;;;;;;;20.40;76.90;;;;;;5086998;28;19928;-89
2022/06/25 11:57:43;;;;;;;;;;;21.10;77.40;;;;;;5112537;28;19927;-91
2022/06/25 12:00:14;;;;;;;;;;;19.80;77.20;;;;;;5091340;28;19930;-90
2022/06/25 12:02:45;;;;;;;;;;;21.10;77.10;;;;;;5078375;28;19927;-92
2022/06/25 12:05:30;;;;;;;;;;;21.00;77.40;;;;;;5088462;28;19931;-89
2022/06/25 12:08:11;;;;;;;;;;;21.00;78.90;;;;;;5066015;28;19925;-90
2022/06/25 12:10:58;;;;;;;;;;;20.40;79.40;;;;;;5080843;28;19919;-90
2022/06/25 12:13:46;;;;;;;;;;;21.10;79.30;;;;;;5056162;28;19940;-89
2022/06/25 12:16:58;;;;;;;;;;;21.30;79.20;;;;;;5087461;28;19919;-91
2022/06/25 12:19:43;;;;;;;;;;;21.60;78.80;;;;;;5085575;28;20006;-89
2022/06/25 12:25:40;;;;;;;;;;;21.50;78.70;;;;;;5071356;28;19935;-89
2022/06/25 12:28:16;;;;;;;;;;;21.50;78.50;;;;;;5038156;28;19924;-88
2022/06/25 12:31:16;;;;;;;;;;;21.70;78.40;;;;;;5059668;28;19939;-88
2022/06/25 12:33:54;;;;;;;;;;;21.70;78.50;;;;;;5079808;28;19915;-89
2022/06/25 12:36:39;;;;;;;;;;;21.80;77.90;;;;;;5068366;28;19932;-89
2022/06/25 12:39:31;;;;;;;;;;;21.80;77.20;;;;;;5034806;28;19921;-89
2022/06/25 12:42:12;;;;;;;;;;;21.40;77.60;;;;;;5058697;28;19913;-89
2022/06/25 12:44:47;;;;;;;;;;;22.00;77.90;;;;;;5063997;28;19924;-89
2022/06/25 12:47:45;;;;;;;;;;;22.10;77.70;;;;;;5069941;28;19932;-88
2022/06/25 12:50:32;;;;;;;;;;;24.20;77.00;;;;;;5059506;28;20311;-90
2022/06/25 12:53:10;;;;;;;;;;;22.50;75.50;;;;;;5079949;28;19924;-89
2022/06/25 12:55:49;;;;;;;;;;;22.60;75.50;;;;;;5090238;28;19924;-88
2022/06/25 12:58:43;;;;;;;;;;;22.60;74.10;;;;;;5069511;28;19938;-89
2022/06/25 13:01:23;;;;;;;;;;;22.50;75.10;;;;;;5077096;28;20362;-91
2022/06/25 13:04:00;;;;;;;;;;;22.90;75.20;;;;;;5073439;28;19924;-88
2022/06/25 13:06:34;;;;;;;;;;;22.80;75.40;;;;;;5076613;28;19934;-89
2022/06/25 13:09:03;;;;;;;;;;;23.50;75.60;;;;;;5077303;28;19924;-89
2022/06/25 13:11:39;;;;;;;;;;;23.10;75.70;;;;;;5086291;28;19939;-91
2022/06/25 13:14:22;;;;;;;;;;;23.90;76.30;;;;;;5073589;28;20351;-91
2022/06/25 13:20:04;;;;;;;;;;;23.70;75.10;;;;;;5081786;28;19931;-86
2022/06/25 13:22:58;;;;;;;;;;;23.80;74.60;;;;;;5071658;28;19926;-88
2022/06/25 13:25:26;;;;;;;;;;;23.10;73.60;;;;;;5064719;28;19929;-88
2022/06/25 13:27:55;;;;;;;;;;;23.70;73.60;;;;;;5084293;28;20102;-90
2022/06/25 13:30:26;;;;;;;;;;;22.80;72.80;;;;;;5082847;28;19928;-89
2022/06/25 13:33:20;;;;;;;;;;;24.00;73.10;;;;;;5095423;28;20404;-90
2022/06/25 13:36:03;;;;;;;;;;;24.10;73.50;;;;;;5074004;28;19928;-90
2022/06/25 13:38:33;;;;;;;;;;;24.20;72.40;;;;;;5062173;28;19932;-90
2022/06/25 13:41:05;;;;;;;;;;;24.20;73.10;;;;;;5079808;28;19939;-91
2022/06/25 13:43:34;;;;;;;;;;;23.90;73.90;;;;;;5100662;28;20613;-89
2022/06/25 13:46:10;;;;;;;;;;;23.90;74.30;;;;;;5071078;28;19925;-91
2022/06/25 13:48:45;;;;;;;;;;;23.50;73.60;;;;;;5087063;28;19932;-90
2022/06/25 13:51:18;;;;;;;;;;;23.70;73.90;;;;;;5068994;28;19938;-90
2022/06/25 13:53:53;;;;;;;;;;;24.00;73.20;;;;;;5078575;28;19939;-90
2022/06/25 13:56:32;;;;;;;;;;;24.30;72.30;;;;;;5086152;28;19934;-92
2022/06/25 13:59:08;;;;;;;;;;;24.20;72.70;;;;;;5081044;28;19929;-91
2022/06/25 14:01:39;;;;;;;;;;;24.50;72.60;;;;;;5100691;28;19920;-89
2022/06/25 14:04:12;;;;;;;;;;;24.50;72.70;;;;;;5078729;28;19928;-89
2022/06/25 14:06:46;;;;;;;;;;;24.40;72.50;;;;;;5065169;28;19935;-91
2022/06/25 14:09:22;;;;;;;;;;;24.40;72.20;;;;;;5082178;28;19928;-91
2022/06/25 14:12:04;;;;;;;;;;;24.40;72.70;;;;;;5079039;28;20390;-92
2022/06/25 14:14:41;;;;;;;;;;;24.40;72.00;;;;;;5066179;28;19925;-92
2022/06/25 14:17:11;;;;;;;;;;;25.10;72.10;;;;;;5068413;28;19932;-92
2022/06/25 14:20:22;;;;;;;;;;;24.70;71.80;;;;;;5069660;28;19928;-90
2022/06/25 14:22:52;;;;;;;;;;;24.70;70.30;;;;;;5074950;28;19927;-90
2022/06/25 14:25:28;;;;;;;;;;;25.70;72.20;;;;;;5075600;28;19932;-91
2022/06/25 14:28:04;;;;;;;;;;;25.20;70.00;;;;;;5049653;28;19912;-91
2022/06/25 14:30:35;;;;;;;;;;;25.60;70.30;;;;;;5083018;28;19924;-90
2022/06/25 14:42:26;;;;;;;;;;;25.50;67.50;;;;;;5096242;28;19924;-90
2022/06/25 14:44:57;;;;;;;;;;;25.30;68.50;;;;;;5074869;28;19954;-87
2022/06/25 14:47:28;;;;;;;;;;;25.60;70.10;;;;;;5044877;28;20298;-91
2022/06/25 14:49:59;;;;;;;;;;;25.60;69.00;;;;;;5093550;28;19935;-90
2022/06/25 14:52:32;;;;;;;;;;;25.70;68.40;;;;;;5079809;28;19936;-91
2022/06/25 14:55:02;;;;;;;;;;;25.60;67.80;;;;;;5076897;28;19925;-90
2022/06/25 14:57:57;;;;;;;;;;;25.90;67.50;;;;;;5096469;28;19920;-89
2022/06/25 15:00:30;;;;;;;;;;;26.20;68.40;;;;;;5081141;28;19924;-90
2022/06/25 15:03:15;;;;;;;;;;;26.00;66.70;;;;;;5079775;28;19960;-90
2022/06/25 15:05:59;;;;;;;;;;;25.40;66.80;;;;;;5095941;28;19920;-90
2022/06/25 15:08:43;;;;;;;;;;;25.00;68.20;;;;;;5082692;28;19935;-91
2022/06/25 15:11:29;;;;;;;;;;;24.50;68.70;;;;;;5083920;28;19931;-90
2022/06/25 21:27:03;;;;;;;;;;;;;;;;;;;;;
2022/06/25 21:34:58;;;;;;;;;;;16.80;94.70;;;;;;4976096;28;19932;-85
2022/06/25 21:42:18;;;;;;;;;;;;;;;;;;;;;
2022/06/25 21:46:14;;;;;;;;;;;;;;;;;;;;;
2022/06/25 21:53:44;;;;;;;;;;;16.50;95.20;;;;;;4943551;28;19936;-86
2022/06/25 21:57:25;;;;;;;;;;;;;;;;;;;;;
2022/06/25 22:00:59;;;;;;;;;;;;;;;;;;;;;
2022/06/25 22:04:25;;;;;;;;;;;15.70;95.30;;;;;;4960905;28;19936;-87
2022/06/25 22:12:57;;;;;;;;;;;15.30;95.70;;;;;;4811091;29;19929;-87
2022/06/25 22:19:53;;;;;;;;;;;;;;;;;;;;;
2022/06/25 22:23:06;;;;;;;;;;;15.90;96.40;;;;;;4793973;30;19921;-86
2022/06/25 22:26:14;;;;;;;;;;;16.00;96.50;;;;;;4811062;29;19928;-87
2022/06/25 22:29:17;;;;;;;;;;;;;;;;;;;;;
2022/06/25 22:32:33;;;;;;;;;;;;;;;;;;;;;
2022/06/25 22:36:34;;;;;;;;;;;;;;;;;;;;;
2022/06/25 22:43:46;;;;;;;;;;;15.60;97.00;;;;;;4906261;29;19927;-86
2022/06/25 22:46:43;;;;;;;;;;;15.50;97.60;;;;;;4842498;29;19927;-86